< < Back
Terminal Aerodrome Forecast


Current Version              Previous Versions:   1  2  3  4  5  6  7  8  9  

Terminal Aerodrome Forecast

821
FTUS44 KMOB 301130
TAFPNS
TAF
KPNS 301130Z 3012/3112 06006KT P6SM SCT060
     FM302100 17008KT P6SM SCT250=

Latest METAR

810
SAUS70 KWBC 312100 RRG
MTRPNS
METAR KPNS 312053Z 00000KT 10SM FEW035 32/21 A3000 RMK AO2 SLP161
T03170206 56017


USA.gov is the U.S. government's official web portal to all federal, state and local government web resources and services.